International Virtual Aviation Organisation

Eastern Europe and Northern Asia MCD

 
UIBB 110400Z 31004MPS 9999 NSC M02/M17 Q1037 R30/912060 NOSIG RMK QFE734/0979
QNH:(hPa/inHg/mmHg)1037 / 30.62 / 778
QFE:(hPa/inHg/mmHg)978 / 28.87 / 733
Temperature-2
Dew Point-17
Visibility> 10000
Weather
Cloud Cover
Transition Height900 m./4600 ft.
Transition LevelFL60
SQUAWK